createdAt,value
2022-10-30T00:01:43.840Z,1001.54
2022-10-30T00:06:43.670Z,1001.52
2022-10-30T00:11:46.659Z,1001.48
2022-10-30T00:16:43.595Z,1001.48
2022-10-30T00:21:43.447Z,1001.40
2022-10-30T00:26:43.479Z,1001.32
2022-10-30T00:31:43.630Z,1001.29
2022-10-30T00:36:43.235Z,1001.19
2022-10-30T00:41:43.194Z,1001.20
2022-10-30T00:46:43.135Z,1001.23
2022-10-30T00:51:43.083Z,1001.06
2022-10-30T00:56:42.982Z,1001.04
2022-10-30T01:01:43.175Z,1001.05
2022-10-30T01:06:42.949Z,1001.06
2022-10-30T01:11:45.853Z,1001.10
2022-10-30T01:16:42.779Z,1001.09
2022-10-30T01:21:42.737Z,1001.02
2022-10-30T01:26:42.586Z,1000.94
2022-10-30T01:31:42.664Z,1000.87
2022-10-30T01:36:42.487Z,1000.76
2022-10-30T01:41:42.418Z,1000.72
2022-10-30T01:46:42.483Z,1000.71
2022-10-30T01:51:42.381Z,1000.72
2022-10-30T01:56:42.192Z,1000.71
2022-10-30T02:01:42.379Z,1000.68
2022-10-30T02:06:42.072Z,1000.71
2022-10-30T02:11:45.566Z,1000.66
2022-10-30T02:16:41.993Z,1000.57
2022-10-30T02:21:41.917Z,1000.58
2022-10-30T02:26:41.897Z,1000.59
2022-10-30T02:31:41.772Z,1000.58
2022-10-30T02:36:41.754Z,1000.63
2022-10-30T02:41:41.684Z,1000.59
2022-10-30T02:46:41.593Z,1000.58
2022-10-30T02:51:41.503Z,1000.50
2022-10-30T02:56:41.391Z,1000.43
2022-10-30T03:01:41.523Z,1000.44
2022-10-30T03:06:41.274Z,1000.42
2022-10-30T03:11:44.246Z,1000.36
2022-10-30T03:16:41.171Z,1000.41
2022-10-30T03:22:52.410Z,1000.39
2022-10-30T03:27:59.517Z,1000.40
2022-10-30T03:32:51.568Z,1000.43
2022-10-30T03:37:51.616Z,1000.42
2022-10-30T03:42:51.627Z,1000.40
2022-10-30T03:47:51.348Z,1000.38
2022-10-30T03:52:51.293Z,1000.37
2022-10-30T03:57:51.383Z,1000.29
2022-10-30T04:02:51.152Z,1000.25
2022-10-30T04:07:51.217Z,1000.27
2022-10-30T04:12:54.133Z,1000.19
2022-10-30T04:17:51.157Z,1000.26
2022-10-30T04:22:51.003Z,1000.26
2022-10-30T04:27:50.932Z,1000.18
2022-10-30T04:32:51.350Z,1000.19
2022-10-30T04:37:50.878Z,1000.17
2022-10-30T04:42:50.767Z,1000.13
2022-10-30T04:47:50.729Z,1000.10
2022-10-30T04:52:50.567Z,1000.09
2022-10-30T04:57:50.528Z,1000.05
2022-10-30T05:02:50.406Z,1000.13
2022-10-30T05:07:50.302Z,1000.16
2022-10-30T05:12:53.295Z,1000.21
2022-10-30T05:17:50.243Z,1000.15
2022-10-30T05:22:50.167Z,1000.11
2022-10-30T05:27:50.132Z,1000.10
2022-10-30T05:32:50.023Z,1000.14
2022-10-30T05:37:50.003Z,1000.08
2022-10-30T05:42:50.517Z,1000.12
2022-10-30T05:47:49.890Z,1000.10
2022-10-30T05:52:49.717Z,1000.11
2022-10-30T05:57:49.602Z,1000.11
2022-10-30T06:02:49.614Z,1000.12
2022-10-30T06:07:49.574Z,1000.21
2022-10-30T06:12:52.442Z,1000.24
2022-10-30T06:17:49.446Z,1000.32
2022-10-30T06:22:49.453Z,1000.39
2022-10-30T06:27:49.232Z,1000.44
2022-10-30T06:32:49.236Z,1000.47
2022-10-30T06:37:49.278Z,1000.44
2022-10-30T06:42:49.107Z,1000.42
2022-10-30T06:47:49.098Z,1000.48
2022-10-30T06:52:48.947Z,1000.54
2022-10-30T06:57:48.837Z,1000.51
2022-10-30T07:02:48.955Z,1000.54
2022-10-30T07:07:48.653Z,1000.62
2022-10-30T07:12:51.702Z,1000.65
2022-10-30T07:17:48.675Z,1000.68
2022-10-30T07:22:48.563Z,1000.66
2022-10-30T07:27:48.401Z,1000.63
2022-10-30T07:32:48.477Z,1000.69
2022-10-30T07:37:48.254Z,1000.67
2022-10-30T07:42:48.229Z,1000.74
2022-10-30T07:47:48.137Z,1000.77
2022-10-30T07:52:55.951Z,1000.78
2022-10-30T07:57:55.014Z,1000.84
2022-10-30T08:02:48.182Z,1000.83
2022-10-30T08:07:47.937Z,1000.83
2022-10-30T08:12:50.878Z,1000.87
2022-10-30T08:17:47.745Z,1000.89
2022-10-30T08:22:47.777Z,1000.91
2022-10-30T08:27:47.598Z,1000.92
2022-10-30T08:32:47.713Z,1000.98
2022-10-30T08:37:47.476Z,1000.92
2022-10-30T08:42:47.429Z,1000.95
2022-10-30T08:47:47.342Z,1000.98
2022-10-30T08:52:50.716Z,1000.89
2022-10-30T08:57:48.443Z,1000.92
2022-10-30T09:02:47.292Z,1000.89
2022-10-30T09:07:47.160Z,1000.82
2022-10-30T09:12:50.086Z,1000.80
2022-10-30T09:17:46.941Z,1000.86
2022-10-30T09:22:46.907Z,1000.92
2022-10-30T09:27:46.855Z,1000.84
2022-10-30T09:32:50.064Z,1000.85
2022-10-30T09:37:47.791Z,1000.77
2022-10-30T09:42:46.666Z,1000.85
2022-10-30T09:47:46.667Z,1000.91
2022-10-30T09:52:46.563Z,1000.88
2022-10-30T09:57:46.489Z,1000.92
2022-10-30T10:02:46.515Z,1000.90
2022-10-30T10:07:47.298Z,1000.84
2022-10-30T10:12:49.292Z,1000.77
2022-10-30T10:17:46.150Z,1000.73
2022-10-30T10:22:46.123Z,1000.62
2022-10-30T10:27:46.019Z,1000.58
2022-10-30T10:32:46.076Z,1000.54
2022-10-30T10:37:45.886Z,1000.50
2022-10-30T10:42:45.917Z,1000.45
2022-10-30T10:47:45.861Z,1000.37
2022-10-30T10:54:03.327Z,1000.27
2022-10-30T10:59:03.173Z,1000.29
2022-10-30T11:04:03.417Z,1000.20
2022-10-30T11:09:03.084Z,1000.10
2022-10-30T11:14:04.486Z,1000.12
2022-10-30T11:19:03.002Z,1000.08
2022-10-30T11:24:02.883Z,1000.04
2022-10-30T11:29:02.761Z,1000.01
2022-10-30T11:34:02.835Z,999.94
2022-10-30T11:39:02.623Z,999.81
2022-10-30T11:44:05.743Z,999.82
2022-10-30T11:49:02.514Z,999.78
2022-10-30T11:54:02.535Z,999.78
2022-10-30T11:59:02.523Z,999.73
2022-10-30T12:04:02.330Z,999.66
2022-10-30T12:09:02.228Z,999.65
2022-10-30T12:14:03.066Z,999.58
2022-10-30T12:20:19.853Z,999.44
2022-10-30T12:25:19.235Z,999.45
2022-10-30T12:30:19.111Z,999.44
2022-10-30T12:35:19.093Z,999.43
2022-10-30T12:40:19.141Z,999.46
2022-10-30T12:45:19.037Z,999.39
2022-10-30T12:50:18.944Z,999.42
2022-10-30T12:55:18.719Z,999.34
2022-10-30T13:00:18.674Z,999.34
2022-10-30T13:05:18.697Z,999.37
2022-10-30T13:10:21.543Z,999.29
2022-10-30T13:15:18.448Z,999.30
2022-10-30T13:20:18.757Z,999.34
2022-10-30T13:25:18.362Z,999.31
2022-10-30T13:30:18.355Z,999.25
2022-10-30T13:35:18.175Z,999.22
2022-10-30T13:40:18.249Z,999.25
2022-10-30T13:45:18.204Z,999.20
2022-10-30T13:50:18.098Z,999.16
2022-10-30T13:55:17.897Z,999.21
2022-10-30T14:00:17.896Z,999.18
2022-10-30T14:05:17.875Z,999.20
2022-10-30T14:10:20.718Z,999.16
2022-10-30T14:15:17.630Z,999.12
2022-10-30T14:20:17.597Z,999.08
2022-10-30T14:25:17.605Z,999.04
2022-10-30T14:30:18.026Z,999.06
2022-10-30T14:35:17.554Z,999.08
2022-10-30T14:40:17.422Z,999.13
2022-10-30T14:46:14.748Z,999.18
2022-10-30T14:51:14.634Z,999.18
2022-10-30T14:56:14.541Z,999.17
2022-10-30T15:01:14.639Z,999.20
2022-10-30T15:06:14.514Z,999.19
2022-10-30T15:11:17.741Z,999.16
2022-10-30T15:16:14.288Z,999.10
2022-10-30T15:21:22.043Z,999.20
2022-10-30T15:26:21.095Z,999.22
2022-10-30T15:31:14.189Z,999.24
2022-10-30T15:36:17.075Z,999.31
2022-10-30T15:41:13.937Z,999.30
2022-10-30T15:46:13.922Z,999.32
2022-10-30T15:51:13.813Z,999.42
2022-10-30T15:56:17.169Z,999.38
2022-10-30T16:01:14.889Z,999.37
2022-10-30T16:06:13.573Z,999.46
2022-10-30T16:11:13.593Z,999.43
2022-10-30T16:21:13.472Z,999.47
2022-10-30T16:26:13.348Z,999.53
2022-10-30T16:31:13.274Z,999.52
2022-10-30T16:36:16.286Z,999.57
2022-10-30T16:41:13.098Z,999.61
2022-10-30T16:46:20.812Z,999.66
2022-10-30T16:51:20.459Z,999.71
2022-10-30T16:56:12.927Z,999.82
2022-10-30T17:01:12.954Z,999.84
2022-10-30T17:06:12.893Z,999.86
2022-10-30T17:11:12.774Z,999.88
2022-10-30T17:16:12.657Z,999.93
2022-10-30T17:21:12.622Z,999.95
2022-10-30T17:26:12.845Z,999.98
2022-10-30T17:31:12.442Z,1000.07
2022-10-30T17:36:16.163Z,1000.10
2022-10-30T17:41:12.362Z,1000.11
2022-10-30T17:46:15.856Z,1000.15
2022-10-30T17:51:13.248Z,1000.26
2022-10-30T17:56:12.148Z,1000.26
2022-10-30T18:01:19.553Z,1000.31
2022-10-30T18:06:11.978Z,1000.39
2022-10-30T18:11:11.927Z,1000.37
2022-10-30T18:16:11.877Z,1000.44
2022-10-30T18:21:11.871Z,1000.48
2022-10-30T18:26:11.687Z,1000.50
2022-10-30T18:31:11.725Z,1000.49
2022-10-30T18:36:14.643Z,1000.57
2022-10-30T18:41:11.586Z,1000.59
2022-10-30T18:46:12.596Z,1000.55
2022-10-30T18:51:11.633Z,1000.56
2022-10-30T18:56:11.482Z,1000.57
2022-10-30T19:01:12.554Z,1000.65
2022-10-30T19:06:11.258Z,1000.61
2022-10-30T19:11:11.298Z,1000.65
2022-10-30T19:16:11.102Z,1000.65
2022-10-30T19:21:15.766Z,1000.66
2022-10-30T19:31:10.818Z,1000.76
2022-10-30T19:36:13.813Z,1000.78
2022-10-30T19:41:10.709Z,1000.83
2022-10-30T19:46:10.709Z,1000.83
2022-10-30T19:51:10.639Z,1000.86
2022-10-30T19:56:12.196Z,1000.93
2022-10-30T20:01:10.708Z,1000.99
2022-10-30T20:06:10.422Z,1001.00
2022-10-30T20:11:10.307Z,1001.02
2022-10-30T20:16:10.271Z,1001.00
2022-10-30T20:21:10.151Z,1001.06
2022-10-30T20:26:10.178Z,1001.12
2022-10-30T20:31:10.031Z,1001.14
2022-10-30T20:36:13.049Z,1001.20
2022-10-30T20:41:10.022Z,1001.27
2022-10-30T20:46:09.896Z,1001.35
2022-10-30T20:51:09.773Z,1001.37
2022-10-30T20:56:09.747Z,1001.34
2022-10-30T21:01:09.787Z,1001.35
2022-10-30T21:06:17.562Z,1001.33
2022-10-30T21:11:09.681Z,1001.44
2022-10-30T21:16:09.451Z,1001.39
2022-10-30T21:21:09.351Z,1001.42
2022-10-30T21:26:09.332Z,1001.43
2022-10-30T21:31:09.202Z,1001.42
2022-10-30T21:36:13.017Z,1001.44
2022-10-30T21:41:09.077Z,1001.45
2022-10-30T21:46:09.086Z,1001.48
2022-10-30T21:51:08.976Z,1001.55
2022-10-30T21:56:08.986Z,1001.52
2022-10-30T22:01:08.865Z,1001.56
2022-10-30T22:06:08.783Z,1001.61
2022-10-30T22:11:08.712Z,1001.65
2022-10-30T22:16:08.689Z,1001.59
2022-10-30T22:21:08.553Z,1001.60
2022-10-30T22:26:08.540Z,1001.67
2022-10-30T22:31:08.418Z,1001.73
2022-10-30T22:36:11.586Z,1001.72
2022-10-30T22:41:08.426Z,1001.76
2022-10-30T22:46:08.280Z,1001.73
2022-10-30T22:51:13.352Z,1001.73
2022-10-30T22:56:09.266Z,1001.87
2022-10-30T23:01:08.042Z,1001.86
2022-10-30T23:06:07.992Z,1001.87
2022-10-30T23:11:07.881Z,1001.91
2022-10-30T23:16:07.946Z,1002.02
2022-10-30T23:21:07.857Z,1002.00
2022-10-30T23:26:07.826Z,1002.04
2022-10-30T23:31:07.624Z,1002.09
2022-10-30T23:36:10.594Z,1002.07
2022-10-30T23:41:07.501Z,1002.09
2022-10-30T23:46:07.461Z,1002.13
2022-10-30T23:51:07.394Z,1002.14
2022-10-30T23:56:07.347Z,1002.11
